createdAt,value
2022-10-15T00:02:52.765Z,12.66
2022-10-15T00:06:18.358Z,12.69
2022-10-15T00:09:40.069Z,12.72
2022-10-15T00:16:29.834Z,12.76
2022-10-15T00:19:51.188Z,12.77
2022-10-15T00:23:14.213Z,12.78
2022-10-15T00:26:35.529Z,12.78
2022-10-15T00:30:00.112Z,12.80
2022-10-15T00:33:22.931Z,12.80
2022-10-15T00:36:44.549Z,12.81
2022-10-15T00:40:09.625Z,12.82
2022-10-15T00:43:42.827Z,12.85
2022-10-15T00:47:08.447Z,12.86
2022-10-15T00:50:29.936Z,12.85
2022-10-15T00:53:51.776Z,12.86
2022-10-15T00:57:15.564Z,12.87
2022-10-15T01:00:38.166Z,12.90
2022-10-15T01:04:00.306Z,12.94
2022-10-15T01:07:21.879Z,12.98
2022-10-15T01:10:51.676Z,13.00
2022-10-15T01:14:29.592Z,13.04
2022-10-15T01:17:57.283Z,13.08
2022-10-15T01:21:26.505Z,13.11
2022-10-15T01:25:03.421Z,13.15
2022-10-15T01:28:40.684Z,13.19
2022-10-15T01:32:09.767Z,13.21
2022-10-15T01:35:43.614Z,13.22
2022-10-15T01:39:13.731Z,13.23
2022-10-15T01:42:41.664Z,13.21
2022-10-15T01:46:07.741Z,13.21
2022-10-15T01:49:56.732Z,13.22
2022-10-15T01:53:26.277Z,13.20
2022-10-15T01:56:51.373Z,13.18
2022-10-15T02:00:15.664Z,13.14
2022-10-15T02:03:46.030Z,13.09
2022-10-15T02:07:15.272Z,13.04
2022-10-15T02:10:48.799Z,12.99
2022-10-15T02:14:16.439Z,12.93
2022-10-15T02:17:42.142Z,12.86
2022-10-15T02:21:10.549Z,12.81
2022-10-15T02:24:38.458Z,12.79
2022-10-15T02:28:01.457Z,12.76
2022-10-15T02:31:24.872Z,12.72
2022-10-15T02:34:47.764Z,12.70
2022-10-15T02:41:41.415Z,12.66
2022-10-15T02:45:08.511Z,12.66
2022-10-15T02:48:30.173Z,12.66
2022-10-15T02:51:52.033Z,12.65
2022-10-15T02:55:13.849Z,12.66
2022-10-15T02:58:37.496Z,12.69
2022-10-15T03:01:59.346Z,12.68
2022-10-15T03:05:21.775Z,12.68
2022-10-15T03:08:44.375Z,12.69
2022-10-15T03:12:06.485Z,12.67
2022-10-15T03:15:32.027Z,12.66
2022-10-15T03:18:53.228Z,12.67
2022-10-15T03:22:15.968Z,12.66
2022-10-15T03:25:43.732Z,12.66
2022-10-15T03:29:07.487Z,12.67
2022-10-15T03:32:55.026Z,12.66
2022-10-15T03:36:16.908Z,12.66
2022-10-15T03:39:38.818Z,12.68
2022-10-15T03:43:02.407Z,12.68
2022-10-15T03:46:24.106Z,12.70
2022-10-15T03:49:47.226Z,12.72
2022-10-15T03:53:08.813Z,12.73
2022-10-15T03:56:30.415Z,12.76
2022-10-15T04:00:09.891Z,12.81
2022-10-15T04:03:34.469Z,12.85
2022-10-15T04:06:57.449Z,12.90
2022-10-15T04:10:19.264Z,12.96
2022-10-15T04:13:40.929Z,13.01
2022-10-15T04:17:03.271Z,13.06
2022-10-15T04:20:25.181Z,13.11
2022-10-15T04:23:48.037Z,13.17
2022-10-15T04:27:17.291Z,13.22
2022-10-15T04:30:38.864Z,13.25
2022-10-15T04:34:03.607Z,13.29
2022-10-15T04:37:25.434Z,13.31
2022-10-15T04:40:49.793Z,13.36
2022-10-15T04:44:11.891Z,13.39
2022-10-15T04:47:34.237Z,13.43
2022-10-15T04:51:10.473Z,13.45
2022-10-15T04:54:59.168Z,13.48
2022-10-15T04:58:22.040Z,13.50
2022-10-15T05:01:44.237Z,13.51
2022-10-15T05:05:06.903Z,13.55
2022-10-15T05:08:32.965Z,13.57
2022-10-15T05:12:04.131Z,13.56
2022-10-15T05:15:28.248Z,13.59
2022-10-15T05:18:52.121Z,13.60
2022-10-15T05:22:13.687Z,13.60
2022-10-15T05:25:42.063Z,13.63
2022-10-15T05:29:04.094Z,13.63
2022-10-15T05:32:27.817Z,13.65
2022-10-15T05:35:49.264Z,13.68
2022-10-15T05:39:12.310Z,13.69
2022-10-15T05:42:38.625Z,13.71
2022-10-15T05:46:00.810Z,13.72
2022-10-15T05:49:23.341Z,13.72
2022-10-15T05:52:52.734Z,13.72
2022-10-15T05:56:34.526Z,13.75
2022-10-15T05:59:56.156Z,13.78
2022-10-15T06:03:17.391Z,13.79
2022-10-15T06:06:40.485Z,13.80
2022-10-15T06:10:01.739Z,13.80
2022-10-15T06:13:28.357Z,13.82
2022-10-15T06:16:50.777Z,13.82
2022-10-15T06:20:13.153Z,13.86
2022-10-15T06:23:36.823Z,13.87
2022-10-15T06:26:59.614Z,13.88
2022-10-15T06:30:21.943Z,13.91
2022-10-15T06:33:43.673Z,13.89
2022-10-15T06:37:05.487Z,13.92
2022-10-15T06:40:28.237Z,13.93
2022-10-15T06:43:50.548Z,13.96
2022-10-15T06:47:12.007Z,13.97
2022-10-15T06:50:33.543Z,14.00
2022-10-15T06:53:55.235Z,14.03
2022-10-15T06:57:17.738Z,14.06
2022-10-15T07:00:39.128Z,14.09
2022-10-15T07:04:00.861Z,14.13
2022-10-15T07:07:22.179Z,14.16
2022-10-15T07:10:43.975Z,14.20
2022-10-15T07:14:06.663Z,14.23
2022-10-15T07:17:30.824Z,14.26
2022-10-15T07:20:52.523Z,14.28
2022-10-15T07:24:14.257Z,14.31
2022-10-15T07:27:35.539Z,14.33
2022-10-15T07:31:08.278Z,14.32
2022-10-15T07:34:32.271Z,14.36
2022-10-15T07:37:53.594Z,14.37
2022-10-15T07:41:15.194Z,14.40
2022-10-15T07:44:39.593Z,14.42
2022-10-15T07:48:07.093Z,14.44
2022-10-15T07:51:28.719Z,14.44
2022-10-15T07:54:50.023Z,14.45
2022-10-15T07:58:13.753Z,14.52
2022-10-15T08:01:35.483Z,14.55
2022-10-15T08:04:58.539Z,14.59
2022-10-15T08:08:20.916Z,14.64
2022-10-15T08:11:42.048Z,14.67
2022-10-15T08:15:04.482Z,14.70
2022-10-15T08:18:26.069Z,14.73
2022-10-15T08:21:48.763Z,14.79
2022-10-15T08:25:10.543Z,14.83
2022-10-15T08:28:34.159Z,14.89
2022-10-15T08:31:55.642Z,14.93
2022-10-15T08:35:18.548Z,14.97
2022-10-15T08:38:41.351Z,15.01
2022-10-15T08:42:05.506Z,15.06
2022-10-15T08:45:32.554Z,15.11
2022-10-15T08:48:57.389Z,15.16
2022-10-15T08:52:26.622Z,15.14
2022-10-15T08:55:51.576Z,15.21
2022-10-15T08:59:26.095Z,15.29
2022-10-15T09:02:56.007Z,15.33
2022-10-15T09:06:22.965Z,15.38
2022-10-15T09:09:52.282Z,15.46
2022-10-15T09:13:21.861Z,15.52
2022-10-15T09:16:45.574Z,15.58
2022-10-15T09:20:15.670Z,15.63
2022-10-15T09:23:38.984Z,15.70
2022-10-15T09:27:07.895Z,15.74
2022-10-15T09:30:38.718Z,15.83
2022-10-15T09:34:06.447Z,15.90
2022-10-15T09:37:33.847Z,15.97
2022-10-15T09:41:16.718Z,16.00
2022-10-15T09:44:42.894Z,16.05
2022-10-15T09:48:16.808Z,16.11
2022-10-15T09:51:45.093Z,16.14
2022-10-15T09:55:14.510Z,16.22
2022-10-15T09:58:43.720Z,16.24
2022-10-15T10:02:18.304Z,16.28
2022-10-15T10:05:41.789Z,16.33
2022-10-15T10:09:03.429Z,16.35
2022-10-15T10:12:29.473Z,16.37
2022-10-15T10:15:58.267Z,16.43
2022-10-15T10:19:21.260Z,16.48
2022-10-15T10:22:50.435Z,16.52
2022-10-15T10:26:14.611Z,16.59
2022-10-15T10:29:43.903Z,16.63
2022-10-15T10:33:06.655Z,16.66
2022-10-15T10:36:30.748Z,16.69
2022-10-15T10:39:59.688Z,16.72
2022-10-15T10:43:27.661Z,16.75
2022-10-15T10:47:03.464Z,16.79
2022-10-15T10:50:32.037Z,16.84
2022-10-15T10:53:56.472Z,16.87
2022-10-15T10:57:28.742Z,16.88
2022-10-15T11:00:53.439Z,16.90
2022-10-15T11:04:25.464Z,16.93
2022-10-15T11:07:54.368Z,16.95
2022-10-15T11:11:23.271Z,16.98
2022-10-15T11:14:54.416Z,16.91
2022-10-15T11:18:34.357Z,16.93
2022-10-15T11:22:08.985Z,16.96
2022-10-15T11:25:39.995Z,17.01
2022-10-15T11:29:12.592Z,17.04
2022-10-15T11:33:06.280Z,17.11
2022-10-15T11:36:37.758Z,17.18
2022-10-15T11:40:15.952Z,17.24
2022-10-15T11:43:48.363Z,17.31
2022-10-15T11:47:27.375Z,17.39
2022-10-15T11:50:53.610Z,17.44
2022-10-15T11:54:28.172Z,17.45
2022-10-15T11:57:59.006Z,17.55
2022-10-15T12:01:25.130Z,17.58
2022-10-15T12:04:51.101Z,17.61
2022-10-15T12:08:15.139Z,17.61
2022-10-15T12:11:46.702Z,17.66
2022-10-15T12:15:27.766Z,17.70
2022-10-15T12:18:56.355Z,17.75
2022-10-15T12:22:34.354Z,17.79
2022-10-15T12:25:57.665Z,17.83
2022-10-15T12:29:23.047Z,17.88
2022-10-15T12:32:46.452Z,17.91
2022-10-15T12:36:21.462Z,17.93
2022-10-15T12:39:52.492Z,17.92
2022-10-15T12:43:18.532Z,17.85
2022-10-15T12:46:42.269Z,17.87
2022-10-15T12:50:06.393Z,17.89
2022-10-15T12:53:34.320Z,17.94
2022-10-15T12:56:55.788Z,17.99
2022-10-15T13:00:50.128Z,18.00
2022-10-15T13:04:13.365Z,18.04
2022-10-15T13:07:37.652Z,18.05
2022-10-15T13:11:01.481Z,18.10
2022-10-15T13:14:33.531Z,18.14
2022-10-15T13:17:57.112Z,18.17
2022-10-15T13:21:19.666Z,18.20
2022-10-15T13:24:45.455Z,18.21
2022-10-15T13:28:29.782Z,18.23
2022-10-15T13:31:52.203Z,18.27
2022-10-15T13:35:18.906Z,18.27
2022-10-15T13:38:46.497Z,18.28
2022-10-15T13:42:11.193Z,18.29
2022-10-15T13:45:33.738Z,18.33
2022-10-15T13:49:00.393Z,18.36
2022-10-15T13:52:22.903Z,18.42
2022-10-15T13:55:49.535Z,18.44
2022-10-15T13:59:17.184Z,18.44
2022-10-15T14:02:38.470Z,18.44
2022-10-15T14:06:13.048Z,18.44
2022-10-15T14:09:36.703Z,18.43
2022-10-15T14:12:59.758Z,18.42
2022-10-15T14:16:22.994Z,18.43
2022-10-15T14:20:02.086Z,18.44
2022-10-15T14:23:32.698Z,18.45
2022-10-15T14:26:54.120Z,18.47
2022-10-15T14:30:25.676Z,18.48
2022-10-15T14:33:47.435Z,18.48
2022-10-15T14:37:40.191Z,18.46
2022-10-15T14:41:06.527Z,18.40
2022-10-15T14:44:42.112Z,18.39
2022-10-15T14:48:11.127Z,18.41
2022-10-15T14:51:33.227Z,18.41
2022-10-15T14:55:03.370Z,18.42
2022-10-15T14:58:27.616Z,18.41
2022-10-15T15:01:57.160Z,18.42
2022-10-15T15:05:25.236Z,18.45
2022-10-15T15:08:47.468Z,18.46
2022-10-15T15:12:17.371Z,18.40
2022-10-15T15:15:42.130Z,18.37
2022-10-15T15:19:03.744Z,18.30
2022-10-15T15:22:30.928Z,18.24
2022-10-15T15:25:53.045Z,18.17
2022-10-15T15:29:14.888Z,18.12
2022-10-15T15:32:36.526Z,18.05
2022-10-15T15:36:02.830Z,18.00
2022-10-15T15:39:25.769Z,17.96
2022-10-15T15:42:48.936Z,17.91
2022-10-15T15:46:10.834Z,17.87
2022-10-15T15:49:32.174Z,17.82
2022-10-15T15:52:53.905Z,17.75
2022-10-15T15:56:16.625Z,17.69
2022-10-15T15:59:38.361Z,17.62
2022-10-15T16:02:59.835Z,17.54
2022-10-15T16:06:21.595Z,17.47
2022-10-15T16:09:43.085Z,17.37
2022-10-15T16:13:06.170Z,17.32
2022-10-15T16:16:28.412Z,17.27
2022-10-15T16:19:49.673Z,17.23
2022-10-15T16:23:13.010Z,17.20
2022-10-15T16:26:34.543Z,17.15
2022-10-15T16:29:57.812Z,17.12
2022-10-15T16:33:19.151Z,17.10
2022-10-15T16:36:41.099Z,17.06
2022-10-15T16:40:02.828Z,17.05
2022-10-15T16:43:24.456Z,17.03
2022-10-15T16:46:47.526Z,16.99
2022-10-15T16:50:12.161Z,16.96
2022-10-15T16:53:34.343Z,16.91
2022-10-15T16:56:56.127Z,16.87
2022-10-15T17:00:17.894Z,16.81
2022-10-15T17:03:42.163Z,16.73
2022-10-15T17:07:03.832Z,16.67
2022-10-15T17:10:25.844Z,16.60
2022-10-15T17:13:48.538Z,16.53
2022-10-15T17:17:10.384Z,16.46
2022-10-15T17:20:34.563Z,16.38
2022-10-15T17:23:58.683Z,16.30
2022-10-15T17:27:19.858Z,16.23
2022-10-15T17:30:41.083Z,16.17
2022-10-15T17:34:04.953Z,16.12
2022-10-15T17:37:27.662Z,16.06
2022-10-15T17:40:49.329Z,16.00
2022-10-15T17:44:11.756Z,15.95
2022-10-15T17:47:33.389Z,15.90
2022-10-15T17:50:54.728Z,15.85
2022-10-15T17:54:17.485Z,15.79
2022-10-15T17:57:38.900Z,15.76
2022-10-15T18:01:00.547Z,15.69
2022-10-15T18:04:22.236Z,15.66
2022-10-15T18:07:43.979Z,15.62
2022-10-15T18:11:07.276Z,15.59
2022-10-15T18:14:28.801Z,15.56
2022-10-15T18:17:50.333Z,15.51
2022-10-15T18:21:12.950Z,15.47
2022-10-15T18:24:34.075Z,15.43
2022-10-15T18:28:01.179Z,15.39
2022-10-15T18:31:25.075Z,15.35
2022-10-15T18:34:47.049Z,15.31
2022-10-15T18:38:08.766Z,15.29
2022-10-15T18:41:35.739Z,15.24
2022-10-15T18:44:58.844Z,15.19
2022-10-15T18:48:20.548Z,15.16
2022-10-15T18:51:41.925Z,15.12
2022-10-15T18:55:03.645Z,15.07
2022-10-15T18:58:25.234Z,15.03
2022-10-15T19:01:49.387Z,15.00
2022-10-15T19:05:10.888Z,14.98
2022-10-15T19:08:32.241Z,14.93
2022-10-15T19:11:55.513Z,14.90
2022-10-15T19:15:17.586Z,14.87
2022-10-15T19:18:40.131Z,14.82
2022-10-15T19:22:02.024Z,14.79
2022-10-15T19:25:23.614Z,14.76
2022-10-15T19:28:44.994Z,14.74
2022-10-15T19:32:07.094Z,14.72
2022-10-15T19:35:29.983Z,14.70
2022-10-15T19:38:51.319Z,14.67
2022-10-15T19:42:12.690Z,14.65
2022-10-15T19:45:38.142Z,14.62
2022-10-15T19:48:59.560Z,14.62
2022-10-15T19:52:22.287Z,14.62
2022-10-15T19:55:58.751Z,14.62
2022-10-15T19:59:20.533Z,14.62
2022-10-15T20:02:42.200Z,14.66
2022-10-15T20:06:03.757Z,14.67
2022-10-15T20:09:26.664Z,14.67
2022-10-15T20:12:48.334Z,14.68
2022-10-15T20:16:14.053Z,14.71
2022-10-15T20:19:35.581Z,14.73
2022-10-15T20:22:57.202Z,14.76
2022-10-15T20:26:20.231Z,14.79
2022-10-15T20:29:42.004Z,14.85
2022-10-15T20:33:03.254Z,14.88
2022-10-15T20:36:27.241Z,14.92
2022-10-15T20:39:48.855Z,14.98
2022-10-15T20:43:11.914Z,15.04
2022-10-15T20:46:38.048Z,15.08
2022-10-15T20:49:59.601Z,15.13
2022-10-15T20:53:22.725Z,15.17
2022-10-15T20:56:44.264Z,15.22
2022-10-15T21:00:09.481Z,15.27
2022-10-15T21:03:30.998Z,15.32
2022-10-15T21:06:52.599Z,15.37
2022-10-15T21:10:14.407Z,15.42
2022-10-15T21:13:36.456Z,15.45
2022-10-15T21:16:59.285Z,15.48
2022-10-15T21:20:21.184Z,15.52
2022-10-15T21:23:43.882Z,15.57
2022-10-15T21:27:05.987Z,15.60
2022-10-15T21:30:27.430Z,15.64
2022-10-15T21:33:50.930Z,15.68
2022-10-15T21:37:12.707Z,15.72
2022-10-15T21:40:34.310Z,15.75
2022-10-15T21:43:56.630Z,15.81
2022-10-15T21:47:18.443Z,15.83
2022-10-15T21:50:41.447Z,15.84
2022-10-15T21:54:04.626Z,15.86
2022-10-15T21:57:26.318Z,15.87
2022-10-15T22:00:48.364Z,15.89
2022-10-15T22:04:11.973Z,15.88
2022-10-15T22:07:38.344Z,15.90
2022-10-15T22:11:12.783Z,15.90
2022-10-15T22:14:34.073Z,15.91
2022-10-15T22:17:55.401Z,15.90
2022-10-15T22:21:19.310Z,15.91
2022-10-15T22:24:42.589Z,15.91
2022-10-15T22:28:04.310Z,15.91
2022-10-15T22:31:26.914Z,15.91
2022-10-15T22:34:48.909Z,15.91
2022-10-15T22:38:10.621Z,15.88
2022-10-15T22:41:35.768Z,15.89
2022-10-15T22:44:57.132Z,15.88
2022-10-15T22:48:18.508Z,15.90
2022-10-15T22:51:39.832Z,15.91
2022-10-15T22:55:01.691Z,15.91
2022-10-15T22:58:26.140Z,15.91
2022-10-15T23:01:47.407Z,15.91
2022-10-15T23:05:12.684Z,15.90
2022-10-15T23:08:35.342Z,15.90
2022-10-15T23:11:56.857Z,15.89
2022-10-15T23:15:19.444Z,15.90
2022-10-15T23:18:41.198Z,15.91
2022-10-15T23:22:03.425Z,15.90
2022-10-15T23:25:24.917Z,15.91
2022-10-15T23:28:50.893Z,15.89
2022-10-15T23:32:13.797Z,15.90
2022-10-15T23:38:59.493Z,15.87
2022-10-15T23:42:20.991Z,15.85
2022-10-15T23:45:42.600Z,15.83
2022-10-15T23:49:06.001Z,15.81
2022-10-15T23:52:27.569Z,15.80
2022-10-15T23:55:49.375Z,15.77
2022-10-15T23:59:11.113Z,15.78
